Castle Point, NY (12511)

5:24 PM EST on December 04, 2016 (GMT -0500)
Windswept Lane | | Change Station

Elev 124 ft 41.55 °N, 73.99 °W | Updated 4 minutes ago

Clear
Clear
36.5 °F
Feels Like 36 °F
N
1.2
Wind Variable Wind from SW
Gusts 3.1 mph

Today
High -- | Low -- °F
--% Chance of Precip.
Yesterday
High -- | Low -- °F
Precip. -- in
Pressure 30.20 in
Visibility 10.0 miles
Clouds Clear
Windchill 36 °F
Dew Point 25 °F
Humidity 62%
Rainfall 0.00 in
Snow Depth Not available.
7:06 AM 4:25 PM
Waxing Crescent, 26% visible
METAR KPOU 042153Z AUTO 03005KT 10SM CLR 00/M06 A3020 RMK AO2 SLP225 T00001061
Pressure 30.20 in
Visibility 10.0 miles
Clouds Clear
Windchill 36 °F
Dew Point 25 °F
Humidity 62%
Rainfall 0.00 in
Snow Depth Not available.
7:06 AM 4:25 PM
Waxing Crescent, 26% visible
METAR KPOU 042153Z AUTO 03005KT 10SM CLR 00/M06 A3020 RMK AO2 SLP225 T00001061

10-Day Weather Forecast

Almanac

Astronomy

Dec. 04, 2016 Rise Set
Actual Time
Civil Twilight
Nautical Twilight
Astronomical Twilight
Moon
Length of Visible Light
Length of Day
Tomorrow will be .
, % of the Moon is Illuminated

Today's Extremes

State Highs State Lows

Community

WunderPhotos

Upload Photos

1,955,684 photos uploaded!

WunderBlog® & News

Nearby

Air Quality

  Air Quality AQ Index Pollutant
Not available.

Snow Depth

Station Depth Elevation

Earthquake Activity

City Distance Mag. Time & Date
Minimum magnitude displayed is 2.5.

Coastal Water Temperatures

Place Temperature

Stations

Nearby Weather Stations

Station Location Temp. Windchill Dew Point Humidity Wind Precip. Elev Updated Type
                   

Watches & Warnings

There are currently no watches in effect.